Terminal Aerodrome Forecast
Issued by NWS Sterling, VA

Current Version | Previous Version | Text Only | Print | Product List | Glossary Off
Versions: 1 2 3 4 5 6 7 8 9 10 11 12 13 14 15 16 17 18 19 20

000
FTUS41 KLWX 182217 AAD
TAFMRB
TAF AMD
KMRB 182217Z 1822/1918 VRB03KT 6SM BR OVC120
     FM190100 19012G22KT P6SM SCT025 OVC110
     FM190300 19013G24KT P6SM -SHRA SCT025 OVC070
     FM190800 26017G31KT P6SM SCT040 OVC045
     FM191400 29022G40KT P6SM FEW040 SCT110=

USA.gov is the U.S. government's official web portal to all federal, state and local government web resources and services.